sensor_id;sensor_type;location;lat;lon;timestamp;P1;durP1;ratioP1;P2;durP2;ratioP2
38629;SDS011;24384;51.988;4.644;2022-08-11T00:01:07;7.35;;;3.97;;
38629;SDS011;24384;51.988;4.644;2022-08-11T00:03:41;8.18;;;3.65;;
38629;SDS011;24384;51.988;4.644;2022-08-11T00:06:10;7.43;;;3.75;;
38629;SDS011;24384;51.988;4.644;2022-08-11T00:08:38;6.95;;;4.10;;
38629;SDS011;24384;51.988;4.644;2022-08-11T00:11:08;13.80;;;4.25;;
38629;SDS011;24384;51.988;4.644;2022-08-11T00:13:37;7.68;;;3.95;;
38629;SDS011;24384;51.988;4.644;2022-08-11T00:16:10;5.15;;;3.72;;
38629;SDS011;24384;51.988;4.644;2022-08-11T00:18:38;8.25;;;3.78;;
38629;SDS011;24384;51.988;4.644;2022-08-11T00:21:06;6.88;;;3.92;;
38629;SDS011;24384;51.988;4.644;2022-08-11T00:23:33;7.45;;;3.63;;
38629;SDS011;24384;51.988;4.644;2022-08-11T00:28:32;9.90;;;4.22;;
38629;SDS011;24384;51.988;4.644;2022-08-11T00:31:00;6.35;;;3.83;;
38629;SDS011;24384;51.988;4.644;2022-08-11T00:33:32;6.03;;;4.13;;
38629;SDS011;24384;51.988;4.644;2022-08-11T00:36:03;6.80;;;3.85;;
38629;SDS011;24384;51.988;4.644;2022-08-11T00:38:32;6.80;;;3.90;;
38629;SDS011;24384;51.988;4.644;2022-08-11T00:44:09;7.53;;;4.05;;
38629;SDS011;24384;51.988;4.644;2022-08-11T01:12:54;5.60;;;3.65;;
38629;SDS011;24384;51.988;4.644;2022-08-11T01:15:26;8.73;;;4.40;;
38629;SDS011;24384;51.988;4.644;2022-08-11T01:28:50;6.90;;;4.32;;
38629;SDS011;24384;51.988;4.644;2022-08-11T01:51:56;8.65;;;4.43;;
38629;SDS011;24384;51.988;4.644;2022-08-11T01:54:00;6.88;;;4.10;;
38629;SDS011;24384;51.988;4.644;2022-08-11T02:07:03;7.50;;;4.35;;
38629;SDS011;24384;51.988;4.644;2022-08-11T02:12:57;8.13;;;3.65;;
38629;SDS011;24384;51.988;4.644;2022-08-11T02:20:50;7.85;;;3.78;;
38629;SDS011;24384;51.988;4.644;2022-08-11T02:29:23;7.93;;;4.15;;
38629;SDS011;24384;51.988;4.644;2022-08-11T02:32:31;11.55;;;4.07;;
38629;SDS011;24384;51.988;4.644;2022-08-11T02:35:22;5.90;;;3.72;;
38629;SDS011;24384;51.988;4.644;2022-08-11T02:37:57;9.10;;;4.28;;
38629;SDS011;24384;51.988;4.644;2022-08-11T02:43:27;6.22;;;4.07;;
38629;SDS011;24384;51.988;4.644;2022-08-11T02:54:43;8.20;;;5.45;;
38629;SDS011;24384;51.988;4.644;2022-08-11T02:57:36;10.10;;;4.90;;
38629;SDS011;24384;51.988;4.644;2022-08-11T03:00:08;7.90;;;4.45;;
38629;SDS011;24384;51.988;4.644;2022-08-11T03:05:21;8.40;;;4.40;;
38629;SDS011;24384;51.988;4.644;2022-08-11T03:08:04;7.95;;;4.55;;
38629;SDS011;24384;51.988;4.644;2022-08-11T03:14:08;6.57;;;4.45;;
38629;SDS011;24384;51.988;4.644;2022-08-11T03:16:53;6.15;;;3.97;;
38629;SDS011;24384;51.988;4.644;2022-08-11T03:25:08;7.50;;;4.53;;
38629;SDS011;24384;51.988;4.644;2022-08-11T03:33:50;8.95;;;4.38;;
38629;SDS011;24384;51.988;4.644;2022-08-11T03:39:16;6.50;;;4.32;;
38629;SDS011;24384;51.988;4.644;2022-08-11T03:50:54;14.38;;;4.60;;
38629;SDS011;24384;51.988;4.644;2022-08-11T04:02:27;9.55;;;4.10;;
38629;SDS011;24384;51.988;4.644;2022-08-11T04:11:13;11.77;;;5.13;;
38629;SDS011;24384;51.988;4.644;2022-08-11T04:14:03;7.38;;;4.30;;
38629;SDS011;24384;51.988;4.644;2022-08-11T04:20:12;10.63;;;4.75;;
38629;SDS011;24384;51.988;4.644;2022-08-11T04:23:06;10.15;;;5.00;;
38629;SDS011;24384;51.988;4.644;2022-08-11T04:34:11;12.15;;;5.45;;
38629;SDS011;24384;51.988;4.644;2022-08-11T05:00:37;7.70;;;4.82;;
38629;SDS011;24384;51.988;4.644;2022-08-11T05:09:27;8.07;;;5.05;;
38629;SDS011;24384;51.988;4.644;2022-08-11T05:12:08;14.75;;;5.18;;
38629;SDS011;24384;51.988;4.644;2022-08-11T05:14:54;7.55;;;4.25;;
38629;SDS011;24384;51.988;4.644;2022-08-11T05:17:44;13.02;;;5.32;;
38629;SDS011;24384;51.988;4.644;2022-08-11T05:20:52;7.15;;;5.05;;
38629;SDS011;24384;51.988;4.644;2022-08-11T05:23:39;9.43;;;5.00;;
38629;SDS011;24384;51.988;4.644;2022-08-11T05:26:36;8.60;;;4.90;;
38629;SDS011;24384;51.988;4.644;2022-08-11T05:29:50;10.30;;;4.78;;
38629;SDS011;24384;51.988;4.644;2022-08-11T05:32:41;8.32;;;4.78;;
38629;SDS011;24384;51.988;4.644;2022-08-11T05:35:40;9.63;;;5.03;;
38629;SDS011;24384;51.988;4.644;2022-08-11T05:38:15;7.97;;;4.55;;
38629;SDS011;24384;51.988;4.644;2022-08-11T05:41:03;7.82;;;5.07;;
38629;SDS011;24384;51.988;4.644;2022-08-11T05:43:49;7.68;;;5.00;;
38629;SDS011;24384;51.988;4.644;2022-08-11T05:46:40;10.20;;;4.47;;
38629;SDS011;24384;51.988;4.644;2022-08-11T05:49:28;7.97;;;4.70;;
38629;SDS011;24384;51.988;4.644;2022-08-11T05:52:20;6.82;;;4.60;;
38629;SDS011;24384;51.988;4.644;2022-08-11T05:58:02;8.85;;;4.72;;
38629;SDS011;24384;51.988;4.644;2022-08-11T06:00:29;6.25;;;4.30;;
38629;SDS011;24384;51.988;4.644;2022-08-11T06:02:59;8.38;;;5.30;;
38629;SDS011;24384;51.988;4.644;2022-08-11T06:05:35;7.15;;;4.85;;
38629;SDS011;24384;51.988;4.644;2022-08-11T06:08:03;8.43;;;4.65;;
38629;SDS011;24384;51.988;4.644;2022-08-11T06:10:34;9.82;;;5.18;;
38629;SDS011;24384;51.988;4.644;2022-08-11T06:13:02;10.40;;;4.82;;
38629;SDS011;24384;51.988;4.644;2022-08-11T06:15:30;14.80;;;5.15;;
38629;SDS011;24384;51.988;4.644;2022-08-11T06:18:08;11.60;;;5.03;;
38629;SDS011;24384;51.988;4.644;2022-08-11T06:20:43;10.35;;;4.75;;
38629;SDS011;24384;51.988;4.644;2022-08-11T06:23:14;12.07;;;4.85;;
38629;SDS011;24384;51.988;4.644;2022-08-11T06:25:44;9.68;;;5.00;;
38629;SDS011;24384;51.988;4.644;2022-08-11T06:28:11;12.27;;;4.30;;
38629;SDS011;24384;51.988;4.644;2022-08-11T06:30:39;11.55;;;4.70;;
38629;SDS011;24384;51.988;4.644;2022-08-11T06:33:09;10.35;;;4.43;;
38629;SDS011;24384;51.988;4.644;2022-08-11T06:41:20;9.02;;;4.47;;
38629;SDS011;24384;51.988;4.644;2022-08-11T06:46:39;8.23;;;4.38;;
38629;SDS011;24384;51.988;4.644;2022-08-11T06:49:07;9.00;;;4.63;;
38629;SDS011;24384;51.988;4.644;2022-08-11T06:51:58;6.43;;;3.60;;
38629;SDS011;24384;51.988;4.644;2022-08-11T06:56:57;9.68;;;4.05;;
38629;SDS011;24384;51.988;4.644;2022-08-11T06:59:42;7.65;;;4.07;;
38629;SDS011;24384;51.988;4.644;2022-08-11T07:02:29;6.55;;;4.57;;
38629;SDS011;24384;51.988;4.644;2022-08-11T07:05:02;8.38;;;4.30;;
38629;SDS011;24384;51.988;4.644;2022-08-11T07:13:58;10.15;;;4.43;;
38629;SDS011;24384;51.988;4.644;2022-08-11T07:16:46;6.80;;;3.97;;
38629;SDS011;24384;51.988;4.644;2022-08-11T07:19:15;9.68;;;4.25;;
38629;SDS011;24384;51.988;4.644;2022-08-11T07:22:04;7.20;;;4.60;;
38629;SDS011;24384;51.988;4.644;2022-08-11T07:25:05;7.97;;;4.82;;
38629;SDS011;24384;51.988;4.644;2022-08-11T07:28:03;9.43;;;4.40;;
38629;SDS011;24384;51.988;4.644;2022-08-11T07:31:11;6.30;;;4.00;;
38629;SDS011;24384;51.988;4.644;2022-08-11T07:33:52;6.88;;;4.68;;
38629;SDS011;24384;51.988;4.644;2022-08-11T07:36:25;8.32;;;4.35;;
38629;SDS011;24384;51.988;4.644;2022-08-11T07:38:54;6.70;;;4.43;;
38629;SDS011;24384;51.988;4.644;2022-08-11T07:41:27;7.07;;;3.90;;
38629;SDS011;24384;51.988;4.644;2022-08-11T07:43:58;13.57;;;4.32;;
38629;SDS011;24384;51.988;4.644;2022-08-11T07:46:43;8.52;;;4.53;;
38629;SDS011;24384;51.988;4.644;2022-08-11T07:49:30;6.07;;;4.05;;
38629;SDS011;24384;51.988;4.644;2022-08-11T07:52:18;10.55;;;4.47;;
38629;SDS011;24384;51.988;4.644;2022-08-11T07:54:50;12.25;;;4.43;;
38629;SDS011;24384;51.988;4.644;2022-08-11T07:57:17;10.40;;;3.95;;
38629;SDS011;24384;51.988;4.644;2022-08-11T08:00:02;8.63;;;3.72;;
38629;SDS011;24384;51.988;4.644;2022-08-11T08:02:46;8.70;;;3.92;;
38629;SDS011;24384;51.988;4.644;2022-08-11T08:05:30;10.05;;;3.95;;
38629;SDS011;24384;51.988;4.644;2022-08-11T08:08:14;9.02;;;3.70;;
38629;SDS011;24384;51.988;4.644;2022-08-11T08:10:59;8.32;;;3.65;;
38629;SDS011;24384;51.988;4.644;2022-08-11T08:13:44;7.93;;;3.40;;
38629;SDS011;24384;51.988;4.644;2022-08-11T08:16:28;8.25;;;3.47;;
38629;SDS011;24384;51.988;4.644;2022-08-11T08:19:13;7.20;;;3.13;;
38629;SDS011;24384;51.988;4.644;2022-08-11T08:21:41;10.02;;;4.00;;
38629;SDS011;24384;51.988;4.644;2022-08-11T08:24:08;9.15;;;3.25;;
38629;SDS011;24384;51.988;4.644;2022-08-11T08:26:35;11.18;;;3.60;;
38629;SDS011;24384;51.988;4.644;2022-08-11T08:29:20;8.15;;;3.60;;
38629;SDS011;24384;51.988;4.644;2022-08-11T08:32:06;9.13;;;3.58;;
38629;SDS011;24384;51.988;4.644;2022-08-11T08:34:33;8.07;;;3.20;;
38629;SDS011;24384;51.988;4.644;2022-08-11T08:37:00;6.90;;;2.95;;
38629;SDS011;24384;51.988;4.644;2022-08-11T08:39:27;6.60;;;2.90;;
38629;SDS011;24384;51.988;4.644;2022-08-11T08:41:54;9.88;;;3.00;;
38629;SDS011;24384;51.988;4.644;2022-08-11T08:44:22;8.25;;;3.58;;
38629;SDS011;24384;51.988;4.644;2022-08-11T08:46:50;10.82;;;3.50;;
38629;SDS011;24384;51.988;4.644;2022-08-11T08:49:33;12.00;;;3.25;;
38629;SDS011;24384;51.988;4.644;2022-08-11T08:52:02;5.65;;;2.90;;
38629;SDS011;24384;51.988;4.644;2022-08-11T08:54:34;9.98;;;3.20;;
38629;SDS011;24384;51.988;4.644;2022-08-11T08:57:04;8.90;;;3.22;;
38629;SDS011;24384;51.988;4.644;2022-08-11T08:59:36;5.55;;;2.65;;
38629;SDS011;24384;51.988;4.644;2022-08-11T09:02:04;6.85;;;3.22;;
38629;SDS011;24384;51.988;4.644;2022-08-11T09:04:31;6.78;;;2.80;;
38629;SDS011;24384;51.988;4.644;2022-08-11T09:07:14;7.47;;;2.85;;
38629;SDS011;24384;51.988;4.644;2022-08-11T09:09:42;6.90;;;2.97;;
38629;SDS011;24384;51.988;4.644;2022-08-11T09:12:11;5.03;;;2.63;;
38629;SDS011;24384;51.988;4.644;2022-08-11T09:14:39;14.30;;;2.85;;
38629;SDS011;24384;51.988;4.644;2022-08-11T09:17:25;8.82;;;2.80;;
38629;SDS011;24384;51.988;4.644;2022-08-11T09:19:59;7.15;;;3.03;;
38629;SDS011;24384;51.988;4.644;2022-08-11T09:22:37;4.75;;;2.60;;
38629;SDS011;24384;51.988;4.644;2022-08-11T09:25:24;10.07;;;2.70;;
38629;SDS011;24384;51.988;4.644;2022-08-11T09:28:10;14.40;;;3.10;;
38629;SDS011;24384;51.988;4.644;2022-08-11T09:30:39;7.85;;;2.80;;
38629;SDS011;24384;51.988;4.644;2022-08-11T09:33:05;8.23;;;2.78;;
38629;SDS011;24384;51.988;4.644;2022-08-11T09:35:34;5.70;;;2.80;;
38629;SDS011;24384;51.988;4.644;2022-08-11T09:38:03;6.10;;;2.63;;
38629;SDS011;24384;51.988;4.644;2022-08-11T09:40:49;6.70;;;2.75;;
38629;SDS011;24384;51.988;4.644;2022-08-11T09:43:16;11.77;;;2.50;;
38629;SDS011;24384;51.988;4.644;2022-08-11T09:46:02;4.57;;;2.42;;
38629;SDS011;24384;51.988;4.644;2022-08-11T09:48:29;6.57;;;2.63;;
38629;SDS011;24384;51.988;4.644;2022-08-11T09:50:59;5.72;;;2.22;;
38629;SDS011;24384;51.988;4.644;2022-08-11T09:53:26;6.82;;;2.40;;
38629;SDS011;24384;51.988;4.644;2022-08-11T09:55:56;8.52;;;2.58;;
38629;SDS011;24384;51.988;4.644;2022-08-11T09:58:22;7.18;;;2.50;;
38629;SDS011;24384;51.988;4.644;2022-08-11T10:00:48;6.80;;;2.33;;
38629;SDS011;24384;51.988;4.644;2022-08-11T10:03:16;8.45;;;2.20;;
38629;SDS011;24384;51.988;4.644;2022-08-11T10:06:00;5.63;;;2.33;;
38629;SDS011;24384;51.988;4.644;2022-08-11T10:08:47;6.63;;;2.58;;
38629;SDS011;24384;51.988;4.644;2022-08-11T10:11:17;8.05;;;2.50;;
38629;SDS011;24384;51.988;4.644;2022-08-11T10:13:46;6.90;;;2.10;;
38629;SDS011;24384;51.988;4.644;2022-08-11T10:16:36;4.80;;;2.50;;
38629;SDS011;24384;51.988;4.644;2022-08-11T10:19:04;7.15;;;2.47;;
38629;SDS011;24384;51.988;4.644;2022-08-11T10:21:36;6.45;;;2.35;;
38629;SDS011;24384;51.988;4.644;2022-08-11T10:24:06;7.07;;;2.15;;
38629;SDS011;24384;51.988;4.644;2022-08-11T10:26:52;6.40;;;2.80;;
38629;SDS011;24384;51.988;4.644;2022-08-11T10:32:09;6.15;;;2.22;;
38629;SDS011;24384;51.988;4.644;2022-08-11T10:34:54;20.08;;;3.10;;
38629;SDS011;24384;51.988;4.644;2022-08-11T10:37:22;9.70;;;2.28;;
38629;SDS011;24384;51.988;4.644;2022-08-11T10:39:49;10.07;;;2.20;;
38629;SDS011;24384;51.988;4.644;2022-08-11T10:42:16;8.25;;;2.70;;
38629;SDS011;24384;51.988;4.644;2022-08-11T10:45:02;6.57;;;2.22;;
38629;SDS011;24384;51.988;4.644;2022-08-11T10:47:53;6.30;;;2.03;;
38629;SDS011;24384;51.988;4.644;2022-08-11T10:50:19;8.07;;;2.00;;
38629;SDS011;24384;51.988;4.644;2022-08-11T10:53:04;7.50;;;2.90;;
38629;SDS011;24384;51.988;4.644;2022-08-11T10:55:50;8.75;;;2.10;;
38629;SDS011;24384;51.988;4.644;2022-08-11T10:58:35;7.88;;;2.40;;
38629;SDS011;24384;51.988;4.644;2022-08-11T11:01:15;7.72;;;2.55;;
38629;SDS011;24384;51.988;4.644;2022-08-11T11:03:55;12.30;;;2.70;;
38629;SDS011;24384;51.988;4.644;2022-08-11T11:09:31;8.45;;;2.20;;
38629;SDS011;24384;51.988;4.644;2022-08-11T11:12:34;8.27;;;2.13;;
38629;SDS011;24384;51.988;4.644;2022-08-11T11:15:28;10.38;;;2.10;;
38629;SDS011;24384;51.988;4.644;2022-08-11T11:18:18;6.65;;;1.90;;
38629;SDS011;24384;51.988;4.644;2022-08-11T11:23:40;8.20;;;2.55;;
38629;SDS011;24384;51.988;4.644;2022-08-11T11:31:51;4.90;;;1.83;;
38629;SDS011;24384;51.988;4.644;2022-08-11T11:34:41;5.53;;;1.73;;
38629;SDS011;24384;51.988;4.644;2022-08-11T11:37:07;7.55;;;2.17;;
38629;SDS011;24384;51.988;4.644;2022-08-11T11:39:36;4.82;;;1.85;;
38629;SDS011;24384;51.988;4.644;2022-08-11T11:42:03;6.13;;;1.60;;
38629;SDS011;24384;51.988;4.644;2022-08-11T11:44:32;6.18;;;1.67;;
38629;SDS011;24384;51.988;4.644;2022-08-11T11:46:57;5.35;;;1.60;;
38629;SDS011;24384;51.988;4.644;2022-08-11T11:49:26;5.05;;;1.70;;
38629;SDS011;24384;51.988;4.644;2022-08-11T11:51:52;5.57;;;1.67;;
38629;SDS011;24384;51.988;4.644;2022-08-11T11:54:20;4.55;;;1.52;;
38629;SDS011;24384;51.988;4.644;2022-08-11T11:56:48;5.03;;;1.63;;
38629;SDS011;24384;51.988;4.644;2022-08-11T11:59:18;3.53;;;1.55;;
38629;SDS011;24384;51.988;4.644;2022-08-11T12:02:04;3.50;;;1.65;;
38629;SDS011;24384;51.988;4.644;2022-08-11T12:04:30;4.72;;;1.88;;
38629;SDS011;24384;51.988;4.644;2022-08-11T12:06:56;7.88;;;1.90;;
38629;SDS011;24384;51.988;4.644;2022-08-11T12:09:42;5.25;;;1.73;;
38629;SDS011;24384;51.988;4.644;2022-08-11T12:12:10;10.20;;;2.10;;
38629;SDS011;24384;51.988;4.644;2022-08-11T12:14:54;4.97;;;1.80;;
38629;SDS011;24384;51.988;4.644;2022-08-11T12:17:21;7.35;;;1.75;;
38629;SDS011;24384;51.988;4.644;2022-08-11T12:19:47;9.48;;;1.80;;
38629;SDS011;24384;51.988;4.644;2022-08-11T12:22:13;7.25;;;1.80;;
38629;SDS011;24384;51.988;4.644;2022-08-11T12:24:58;8.55;;;1.75;;
38629;SDS011;24384;51.988;4.644;2022-08-11T12:27:43;11.02;;;1.92;;
38629;SDS011;24384;51.988;4.644;2022-08-11T12:30:09;3.30;;;1.70;;
38629;SDS011;24384;51.988;4.644;2022-08-11T12:32:36;14.95;;;2.08;;
38629;SDS011;24384;51.988;4.644;2022-08-11T12:35:04;5.70;;;1.90;;
38629;SDS011;24384;51.988;4.644;2022-08-11T12:37:31;8.88;;;2.00;;
38629;SDS011;24384;51.988;4.644;2022-08-11T12:40:10;6.10;;;1.30;;
38629;SDS011;24384;51.988;4.644;2022-08-11T12:43:06;6.43;;;1.40;;
38629;SDS011;24384;51.988;4.644;2022-08-11T12:45:56;5.20;;;1.50;;
38629;SDS011;24384;51.988;4.644;2022-08-11T12:48:30;7.07;;;1.73;;
38629;SDS011;24384;51.988;4.644;2022-08-11T12:51:19;3.65;;;1.60;;
38629;SDS011;24384;51.988;4.644;2022-08-11T12:56:41;3.85;;;1.60;;
38629;SDS011;24384;51.988;4.644;2022-08-11T12:59:28;4.60;;;1.65;;
38629;SDS011;24384;51.988;4.644;2022-08-11T13:02:17;4.47;;;1.80;;
38629;SDS011;24384;51.988;4.644;2022-08-11T13:05:03;6.72;;;1.52;;
38629;SDS011;24384;51.988;4.644;2022-08-11T13:07:31;4.00;;;1.60;;
38629;SDS011;24384;51.988;4.644;2022-08-11T13:10:04;7.57;;;1.50;;
38629;SDS011;24384;51.988;4.644;2022-08-11T13:12:32;4.47;;;1.50;;
38629;SDS011;24384;51.988;4.644;2022-08-11T13:17:41;5.15;;;1.55;;
38629;SDS011;24384;51.988;4.644;2022-08-11T13:20:08;6.55;;;1.50;;
38629;SDS011;24384;51.988;4.644;2022-08-11T13:22:36;5.57;;;1.50;;
38629;SDS011;24384;51.988;4.644;2022-08-11T13:25:05;5.32;;;1.50;;
38629;SDS011;24384;51.988;4.644;2022-08-11T13:27:31;5.75;;;1.60;;
38629;SDS011;24384;51.988;4.644;2022-08-11T13:29:58;4.68;;;1.60;;
38629;SDS011;24384;51.988;4.644;2022-08-11T13:32:43;5.68;;;1.67;;
38629;SDS011;24384;51.988;4.644;2022-08-11T13:35:10;5.22;;;1.90;;
38629;SDS011;24384;51.988;4.644;2022-08-11T13:37:39;4.88;;;1.67;;
38629;SDS011;24384;51.988;4.644;2022-08-11T13:40:05;4.50;;;1.67;;
38629;SDS011;24384;51.988;4.644;2022-08-11T13:42:32;5.60;;;1.63;;
38629;SDS011;24384;51.988;4.644;2022-08-11T13:44:58;3.00;;;1.65;;
38629;SDS011;24384;51.988;4.644;2022-08-11T13:47:24;3.92;;;1.55;;
38629;SDS011;24384;51.988;4.644;2022-08-11T13:49:51;3.90;;;1.40;;
38629;SDS011;24384;51.988;4.644;2022-08-11T13:52:17;3.63;;;1.67;;
38629;SDS011;24384;51.988;4.644;2022-08-11T13:54:44;2.95;;;1.48;;
38629;SDS011;24384;51.988;4.644;2022-08-11T13:57:12;6.00;;;1.50;;
38629;SDS011;24384;51.988;4.644;2022-08-11T13:59:40;5.57;;;1.50;;
38629;SDS011;24384;51.988;4.644;2022-08-11T14:02:11;6.70;;;1.70;;
38629;SDS011;24384;51.988;4.644;2022-08-11T14:04:44;4.68;;;1.65;;
38629;SDS011;24384;51.988;4.644;2022-08-11T14:07:16;4.05;;;1.52;;
38629;SDS011;24384;51.988;4.644;2022-08-11T14:09:47;3.88;;;1.63;;
38629;SDS011;24384;51.988;4.644;2022-08-11T14:12:22;4.03;;;1.58;;
38629;SDS011;24384;51.988;4.644;2022-08-11T14:15:17;8.57;;;1.73;;
38629;SDS011;24384;51.988;4.644;2022-08-11T14:20:36;5.15;;;2.13;;
38629;SDS011;24384;51.988;4.644;2022-08-11T14:23:28;4.60;;;1.50;;
38629;SDS011;24384;51.988;4.644;2022-08-11T14:25:59;5.38;;;1.90;;
38629;SDS011;24384;51.988;4.644;2022-08-11T14:28:43;6.03;;;1.67;;
38629;SDS011;24384;51.988;4.644;2022-08-11T14:31:10;4.38;;;1.40;;
38629;SDS011;24384;51.988;4.644;2022-08-11T14:33:38;4.60;;;1.50;;
38629;SDS011;24384;51.988;4.644;2022-08-11T14:36:05;6.75;;;2.10;;
38629;SDS011;24384;51.988;4.644;2022-08-11T14:38:33;5.95;;;1.63;;
38629;SDS011;24384;51.988;4.644;2022-08-11T14:41:00;4.47;;;1.70;;
38629;SDS011;24384;51.988;4.644;2022-08-11T14:43:45;4.72;;;1.98;;
38629;SDS011;24384;51.988;4.644;2022-08-11T14:46:30;11.63;;;1.95;;
38629;SDS011;24384;51.988;4.644;2022-08-11T14:49:17;5.43;;;1.88;;
38629;SDS011;24384;51.988;4.644;2022-08-11T14:51:43;5.38;;;1.50;;
38629;SDS011;24384;51.988;4.644;2022-08-11T14:54:10;7.68;;;2.13;;
38629;SDS011;24384;51.988;4.644;2022-08-11T14:56:54;5.22;;;1.80;;
38629;SDS011;24384;51.988;4.644;2022-08-11T14:59:21;3.65;;;1.60;;
38629;SDS011;24384;51.988;4.644;2022-08-11T15:01:48;3.25;;;1.58;;
38629;SDS011;24384;51.988;4.644;2022-08-11T15:04:32;3.92;;;1.60;;
38629;SDS011;24384;51.988;4.644;2022-08-11T15:06:58;4.63;;;1.60;;
38629;SDS011;24384;51.988;4.644;2022-08-11T15:09:24;6.30;;;1.67;;
38629;SDS011;24384;51.988;4.644;2022-08-11T15:11:49;6.07;;;1.70;;
38629;SDS011;24384;51.988;4.644;2022-08-11T15:14:34;7.28;;;1.85;;
38629;SDS011;24384;51.988;4.644;2022-08-11T15:17:18;8.48;;;1.65;;
38629;SDS011;24384;51.988;4.644;2022-08-11T15:19:45;5.85;;;1.50;;
38629;SDS011;24384;51.988;4.644;2022-08-11T15:22:32;4.95;;;1.77;;
38629;SDS011;24384;51.988;4.644;2022-08-11T15:25:16;7.47;;;1.80;;
38629;SDS011;24384;51.988;4.644;2022-08-11T15:27:43;8.70;;;1.65;;
38629;SDS011;24384;51.988;4.644;2022-08-11T15:30:30;6.07;;;1.65;;
38629;SDS011;24384;51.988;4.644;2022-08-11T15:33:15;3.30;;;1.40;;
38629;SDS011;24384;51.988;4.644;2022-08-11T15:36:02;7.05;;;1.80;;
38629;SDS011;24384;51.988;4.644;2022-08-11T15:38:54;4.72;;;1.52;;
38629;SDS011;24384;51.988;4.644;2022-08-11T15:41:34;6.32;;;1.80;;
38629;SDS011;24384;51.988;4.644;2022-08-11T15:44:32;4.75;;;1.63;;
38629;SDS011;24384;51.988;4.644;2022-08-11T15:47:21;6.50;;;1.42;;
38629;SDS011;24384;51.988;4.644;2022-08-11T15:49:50;3.35;;;1.33;;
38629;SDS011;24384;51.988;4.644;2022-08-11T15:52:18;7.45;;;1.50;;
38629;SDS011;24384;51.988;4.644;2022-08-11T15:54:47;5.63;;;1.83;;
38629;SDS011;24384;51.988;4.644;2022-08-11T15:57:17;3.08;;;1.55;;
38629;SDS011;24384;51.988;4.644;2022-08-11T16:00:03;9.75;;;1.67;;
38629;SDS011;24384;51.988;4.644;2022-08-11T16:02:50;4.18;;;1.42;;
38629;SDS011;24384;51.988;4.644;2022-08-11T16:05:19;5.18;;;1.73;;
38629;SDS011;24384;51.988;4.644;2022-08-11T16:07:46;3.97;;;1.52;;
38629;SDS011;24384;51.988;4.644;2022-08-11T16:10:16;8.43;;;1.80;;
38629;SDS011;24384;51.988;4.644;2022-08-11T16:18:52;5.70;;;1.53;;
38629;SDS011;24384;51.988;4.644;2022-08-11T16:21:26;4.50;;;1.50;;
38629;SDS011;24384;51.988;4.644;2022-08-11T16:23:56;4.70;;;1.40;;
38629;SDS011;24384;51.988;4.644;2022-08-11T16:26:24;5.25;;;1.40;;
38629;SDS011;24384;51.988;4.644;2022-08-11T16:28:54;5.72;;;1.60;;
38629;SDS011;24384;51.988;4.644;2022-08-11T16:31:21;2.55;;;1.27;;
38629;SDS011;24384;51.988;4.644;2022-08-11T16:33:48;4.70;;;1.40;;
38629;SDS011;24384;51.988;4.644;2022-08-11T16:36:16;5.30;;;1.60;;
38629;SDS011;24384;51.988;4.644;2022-08-11T16:39:02;8.85;;;1.55;;
38629;SDS011;24384;51.988;4.644;2022-08-11T16:41:31;3.58;;;1.55;;
38629;SDS011;24384;51.988;4.644;2022-08-11T16:44:17;8.35;;;1.30;;
38629;SDS011;24384;51.988;4.644;2022-08-11T16:47:02;5.63;;;1.40;;
38629;SDS011;24384;51.988;4.644;2022-08-11T16:49:34;3.05;;;1.20;;
38629;SDS011;24384;51.988;4.644;2022-08-11T16:52:05;4.90;;;1.58;;
38629;SDS011;24384;51.988;4.644;2022-08-11T16:54:35;7.07;;;1.58;;
38629;SDS011;24384;51.988;4.644;2022-08-11T16:57:23;4.78;;;1.70;;
38629;SDS011;24384;51.988;4.644;2022-08-11T17:00:07;3.58;;;1.60;;
38629;SDS011;24384;51.988;4.644;2022-08-11T17:02:48;4.17;;;1.30;;
38629;SDS011;24384;51.988;4.644;2022-08-11T17:05:34;4.07;;;1.33;;
38629;SDS011;24384;51.988;4.644;2022-08-11T17:08:25;6.47;;;1.70;;
38629;SDS011;24384;51.988;4.644;2022-08-11T17:11:32;3.83;;;1.70;;
38629;SDS011;24384;51.988;4.644;2022-08-11T17:14:57;7.75;;;1.67;;
38629;SDS011;24384;51.988;4.644;2022-08-11T17:17:30;5.38;;;1.60;;
38629;SDS011;24384;51.988;4.644;2022-08-11T17:20:00;4.53;;;1.50;;
38629;SDS011;24384;51.988;4.644;2022-08-11T17:22:32;7.25;;;1.88;;
38629;SDS011;24384;51.988;4.644;2022-08-11T17:25:17;6.68;;;1.70;;
38629;SDS011;24384;51.988;4.644;2022-08-11T17:27:44;4.72;;;1.52;;
38629;SDS011;24384;51.988;4.644;2022-08-11T17:30:12;6.88;;;2.00;;
38629;SDS011;24384;51.988;4.644;2022-08-11T17:32:40;5.45;;;1.50;;
38629;SDS011;24384;51.988;4.644;2022-08-11T17:35:33;6.53;;;1.77;;
38629;SDS011;24384;51.988;4.644;2022-08-11T17:38:06;6.68;;;1.80;;
38629;SDS011;24384;51.988;4.644;2022-08-11T17:40:34;4.60;;;1.60;;
38629;SDS011;24384;51.988;4.644;2022-08-11T17:43:02;5.00;;;1.38;;
38629;SDS011;24384;51.988;4.644;2022-08-11T17:45:48;4.63;;;1.55;;
38629;SDS011;24384;51.988;4.644;2022-08-11T17:48:51;3.35;;;1.42;;
38629;SDS011;24384;51.988;4.644;2022-08-11T17:51:17;6.15;;;1.60;;
38629;SDS011;24384;51.988;4.644;2022-08-11T17:54:02;7.05;;;1.83;;
38629;SDS011;24384;51.988;4.644;2022-08-11T17:56:48;4.00;;;1.65;;
38629;SDS011;24384;51.988;4.644;2022-08-11T17:59:33;6.85;;;1.48;;
38629;SDS011;24384;51.988;4.644;2022-08-11T18:02:32;3.38;;;1.58;;
38629;SDS011;24384;51.988;4.644;2022-08-11T18:05:17;4.13;;;1.65;;
38629;SDS011;24384;51.988;4.644;2022-08-11T18:07:45;9.93;;;1.42;;
38629;SDS011;24384;51.988;4.644;2022-08-11T18:10:34;9.85;;;1.80;;
38629;SDS011;24384;51.988;4.644;2022-08-11T18:13:23;6.47;;;1.80;;
38629;SDS011;24384;51.988;4.644;2022-08-11T18:16:10;7.68;;;1.65;;
38629;SDS011;24384;51.988;4.644;2022-08-11T18:18:55;6.78;;;1.90;;
38629;SDS011;24384;51.988;4.644;2022-08-11T18:21:43;6.10;;;1.42;;
38629;SDS011;24384;51.988;4.644;2022-08-11T18:24:30;2.97;;;1.60;;
38629;SDS011;24384;51.988;4.644;2022-08-11T18:27:18;7.57;;;1.80;;
38629;SDS011;24384;51.988;4.644;2022-08-11T18:30:05;10.43;;;1.70;;
38629;SDS011;24384;51.988;4.644;2022-08-11T18:32:50;7.10;;;1.60;;
38629;SDS011;24384;51.988;4.644;2022-08-11T18:35:36;3.25;;;1.50;;
38629;SDS011;24384;51.988;4.644;2022-08-11T18:38:21;4.55;;;1.70;;
38629;SDS011;24384;51.988;4.644;2022-08-11T18:41:08;5.43;;;1.70;;
38629;SDS011;24384;51.988;4.644;2022-08-11T18:43:54;8.95;;;1.65;;
38629;SDS011;24384;51.988;4.644;2022-08-11T18:46:40;6.65;;;1.70;;
38629;SDS011;24384;51.988;4.644;2022-08-11T18:49:33;5.22;;;1.70;;
38629;SDS011;24384;51.988;4.644;2022-08-11T18:52:19;4.85;;;1.70;;
38629;SDS011;24384;51.988;4.644;2022-08-11T18:55:07;5.05;;;2.00;;
38629;SDS011;24384;51.988;4.644;2022-08-11T18:57:54;7.65;;;1.88;;
38629;SDS011;24384;51.988;4.644;2022-08-11T19:00:40;8.00;;;1.88;;
38629;SDS011;24384;51.988;4.644;2022-08-11T19:03:26;6.80;;;2.17;;
38629;SDS011;24384;51.988;4.644;2022-08-11T19:06:13;6.63;;;2.05;;
38629;SDS011;24384;51.988;4.644;2022-08-11T19:08:59;3.47;;;1.88;;
38629;SDS011;24384;51.988;4.644;2022-08-11T19:11:46;10.15;;;1.80;;
38629;SDS011;24384;51.988;4.644;2022-08-11T19:14:31;13.23;;;2.55;;
38629;SDS011;24384;51.988;4.644;2022-08-11T19:17:18;25.85;;;4.13;;
38629;SDS011;24384;51.988;4.644;2022-08-11T19:20:03;11.30;;;2.60;;
38629;SDS011;24384;51.988;4.644;2022-08-11T19:22:50;13.32;;;2.38;;
38629;SDS011;24384;51.988;4.644;2022-08-11T19:25:37;13.45;;;3.00;;
38629;SDS011;24384;51.988;4.644;2022-08-11T19:28:22;16.33;;;3.17;;
38629;SDS011;24384;51.988;4.644;2022-08-11T19:31:08;13.05;;;3.00;;
38629;SDS011;24384;51.988;4.644;2022-08-11T19:33:56;20.77;;;4.97;;
38629;SDS011;24384;51.988;4.644;2022-08-11T19:36:42;14.63;;;2.83;;
38629;SDS011;24384;51.988;4.644;2022-08-11T19:39:27;10.80;;;3.17;;
38629;SDS011;24384;51.988;4.644;2022-08-11T19:42:12;15.13;;;3.15;;